sensor_id;sensor_type;location;lat;lon;timestamp;P1;durP1;ratioP1;P2;durP2;ratioP2
12774;SDS011;6451;42.630;23.382;2022-12-26T00:01:23;7.77;;;4.80;;
12774;SDS011;6451;42.630;23.382;2022-12-26T00:03:52;5.87;;;4.60;;
12774;SDS011;6451;42.630;23.382;2022-12-26T00:06:21;7.20;;;4.60;;
12774;SDS011;6451;42.630;23.382;2022-12-26T00:08:49;7.60;;;4.40;;
12774;SDS011;6451;42.630;23.382;2022-12-26T00:11:17;7.27;;;4.27;;
12774;SDS011;6451;42.630;23.382;2022-12-26T00:13:45;6.60;;;4.13;;
12774;SDS011;6451;42.630;23.382;2022-12-26T00:16:13;6.57;;;4.20;;
12774;SDS011;6451;42.630;23.382;2022-12-26T00:18:41;5.57;;;4.30;;
12774;SDS011;6451;42.630;23.382;2022-12-26T00:21:09;7.20;;;3.90;;
12774;SDS011;6451;42.630;23.382;2022-12-26T00:23:39;5.23;;;3.90;;
12774;SDS011;6451;42.630;23.382;2022-12-26T00:26:07;5.53;;;3.97;;
12774;SDS011;6451;42.630;23.382;2022-12-26T00:28:36;5.80;;;4.07;;
12774;SDS011;6451;42.630;23.382;2022-12-26T00:31:05;5.67;;;4.20;;
12774;SDS011;6451;42.630;23.382;2022-12-26T00:33:33;5.33;;;3.70;;
12774;SDS011;6451;42.630;23.382;2022-12-26T00:36:00;6.00;;;3.93;;
12774;SDS011;6451;42.630;23.382;2022-12-26T00:38:28;5.73;;;3.90;;
12774;SDS011;6451;42.630;23.382;2022-12-26T00:40:55;6.47;;;4.00;;
12774;SDS011;6451;42.630;23.382;2022-12-26T00:43:22;6.23;;;4.20;;
12774;SDS011;6451;42.630;23.382;2022-12-26T00:45:49;6.83;;;4.10;;
12774;SDS011;6451;42.630;23.382;2022-12-26T00:48:17;6.90;;;4.23;;
12774;SDS011;6451;42.630;23.382;2022-12-26T00:50:44;6.20;;;4.27;;
12774;SDS011;6451;42.630;23.382;2022-12-26T00:53:11;5.33;;;3.80;;
12774;SDS011;6451;42.630;23.382;2022-12-26T00:55:38;5.40;;;3.63;;
12774;SDS011;6451;42.630;23.382;2022-12-26T00:58:05;4.97;;;3.73;;
12774;SDS011;6451;42.630;23.382;2022-12-26T01:00:32;5.53;;;4.00;;
12774;SDS011;6451;42.630;23.382;2022-12-26T01:02:59;6.07;;;3.60;;
12774;SDS011;6451;42.630;23.382;2022-12-26T01:05:27;6.70;;;4.23;;
12774;SDS011;6451;42.630;23.382;2022-12-26T01:07:54;5.07;;;3.73;;
12774;SDS011;6451;42.630;23.382;2022-12-26T01:10:21;7.80;;;4.33;;
12774;SDS011;6451;42.630;23.382;2022-12-26T01:12:49;5.93;;;4.33;;
12774;SDS011;6451;42.630;23.382;2022-12-26T01:15:16;6.90;;;3.90;;
12774;SDS011;6451;42.630;23.382;2022-12-26T01:17:43;6.87;;;3.93;;
12774;SDS011;6451;42.630;23.382;2022-12-26T01:20:10;4.80;;;3.43;;
12774;SDS011;6451;42.630;23.382;2022-12-26T01:22:39;6.47;;;3.50;;
12774;SDS011;6451;42.630;23.382;2022-12-26T01:25:07;5.57;;;3.80;;
12774;SDS011;6451;42.630;23.382;2022-12-26T01:27:35;7.20;;;4.90;;
12774;SDS011;6451;42.630;23.382;2022-12-26T01:30:02;6.27;;;4.40;;
12774;SDS011;6451;42.630;23.382;2022-12-26T01:32:30;7.67;;;4.53;;
12774;SDS011;6451;42.630;23.382;2022-12-26T01:34:57;6.23;;;4.40;;
12774;SDS011;6451;42.630;23.382;2022-12-26T01:37:24;8.17;;;4.90;;
12774;SDS011;6451;42.630;23.382;2022-12-26T01:39:52;7.20;;;4.70;;
12774;SDS011;6451;42.630;23.382;2022-12-26T01:42:20;10.23;;;4.60;;
12774;SDS011;6451;42.630;23.382;2022-12-26T01:44:54;7.20;;;4.73;;
12774;SDS011;6451;42.630;23.382;2022-12-26T01:47:34;7.57;;;5.03;;
12774;SDS011;6451;42.630;23.382;2022-12-26T01:50:06;8.53;;;5.03;;
12774;SDS011;6451;42.630;23.382;2022-12-26T01:52:51;8.87;;;5.40;;
12774;SDS011;6451;42.630;23.382;2022-12-26T01:55:22;6.70;;;5.10;;
12774;SDS011;6451;42.630;23.382;2022-12-26T01:57:51;8.83;;;5.20;;
12774;SDS011;6451;42.630;23.382;2022-12-26T02:00:22;9.03;;;5.13;;
12774;SDS011;6451;42.630;23.382;2022-12-26T02:02:49;7.83;;;5.03;;
12774;SDS011;6451;42.630;23.382;2022-12-26T02:05:33;11.17;;;5.63;;
12774;SDS011;6451;42.630;23.382;2022-12-26T02:08:01;7.03;;;4.90;;
12774;SDS011;6451;42.630;23.382;2022-12-26T02:10:34;8.87;;;4.33;;
12774;SDS011;6451;42.630;23.382;2022-12-26T02:13:04;7.17;;;4.20;;
12774;SDS011;6451;42.630;23.382;2022-12-26T02:15:32;5.03;;;3.80;;
12774;SDS011;6451;42.630;23.382;2022-12-26T02:17:59;5.87;;;3.93;;
12774;SDS011;6451;42.630;23.382;2022-12-26T02:20:26;5.47;;;3.57;;
12774;SDS011;6451;42.630;23.382;2022-12-26T02:23:07;4.70;;;3.43;;
12774;SDS011;6451;42.630;23.382;2022-12-26T02:32:04;6.23;;;4.10;;
12774;SDS011;6451;42.630;23.382;2022-12-26T02:34:39;5.57;;;3.30;;
12774;SDS011;6451;42.630;23.382;2022-12-26T02:37:19;4.10;;;3.30;;
12774;SDS011;6451;42.630;23.382;2022-12-26T02:39:57;5.33;;;3.63;;
12774;SDS011;6451;42.630;23.382;2022-12-26T02:42:38;6.43;;;3.83;;
12774;SDS011;6451;42.630;23.382;2022-12-26T02:45:15;4.97;;;3.80;;
12774;SDS011;6451;42.630;23.382;2022-12-26T02:48:12;6.47;;;3.90;;
12774;SDS011;6451;42.630;23.382;2022-12-26T02:50:50;7.70;;;3.50;;
12774;SDS011;6451;42.630;23.382;2022-12-26T02:53:44;5.50;;;3.40;;
12774;SDS011;6451;42.630;23.382;2022-12-26T02:56:36;5.47;;;3.60;;
12774;SDS011;6451;42.630;23.382;2022-12-26T02:59:26;6.37;;;3.77;;
12774;SDS011;6451;42.630;23.382;2022-12-26T03:02:17;5.63;;;3.80;;
12774;SDS011;6451;42.630;23.382;2022-12-26T03:05:21;6.47;;;3.70;;
12774;SDS011;6451;42.630;23.382;2022-12-26T03:08:11;6.63;;;4.50;;
12774;SDS011;6451;42.630;23.382;2022-12-26T03:11:02;9.07;;;3.93;;
12774;SDS011;6451;42.630;23.382;2022-12-26T03:13:47;6.97;;;4.40;;
12774;SDS011;6451;42.630;23.382;2022-12-26T03:16:16;7.10;;;4.50;;
12774;SDS011;6451;42.630;23.382;2022-12-26T03:19:05;9.37;;;5.50;;
12774;SDS011;6451;42.630;23.382;2022-12-26T03:21:38;11.07;;;5.57;;
12774;SDS011;6451;42.630;23.382;2022-12-26T03:24:08;11.63;;;7.80;;
12774;SDS011;6451;42.630;23.382;2022-12-26T03:26:39;15.13;;;10.70;;
12774;SDS011;6451;42.630;23.382;2022-12-26T03:29:12;16.13;;;11.77;;
12774;SDS011;6451;42.630;23.382;2022-12-26T03:31:59;17.53;;;12.53;;
12774;SDS011;6451;42.630;23.382;2022-12-26T03:34:27;18.77;;;13.00;;
12774;SDS011;6451;42.630;23.382;2022-12-26T03:36:58;22.07;;;13.93;;
12774;SDS011;6451;42.630;23.382;2022-12-26T03:39:39;20.03;;;13.80;;
12774;SDS011;6451;42.630;23.382;2022-12-26T03:42:33;18.40;;;13.13;;
12774;SDS011;6451;42.630;23.382;2022-12-26T03:45:28;20.60;;;12.70;;
12774;SDS011;6451;42.630;23.382;2022-12-26T03:48:24;17.97;;;13.17;;
12774;SDS011;6451;42.630;23.382;2022-12-26T03:51:16;20.87;;;12.63;;
12774;SDS011;6451;42.630;23.382;2022-12-26T03:54:08;20.37;;;13.33;;
12774;SDS011;6451;42.630;23.382;2022-12-26T03:56:57;18.90;;;12.73;;
12774;SDS011;6451;42.630;23.382;2022-12-26T03:59:48;16.93;;;12.10;;
12774;SDS011;6451;42.630;23.382;2022-12-26T04:02:36;18.60;;;12.67;;
12774;SDS011;6451;42.630;23.382;2022-12-26T04:05:23;16.90;;;12.73;;
12774;SDS011;6451;42.630;23.382;2022-12-26T04:08:10;12.47;;;8.40;;
12774;SDS011;6451;42.630;23.382;2022-12-26T04:11:00;10.90;;;7.50;;
12774;SDS011;6451;42.630;23.382;2022-12-26T04:13:49;7.90;;;4.90;;
12774;SDS011;6451;42.630;23.382;2022-12-26T04:16:38;7.33;;;4.70;;
12774;SDS011;6451;42.630;23.382;2022-12-26T04:19:33;8.17;;;4.50;;
12774;SDS011;6451;42.630;23.382;2022-12-26T04:22:16;7.50;;;4.87;;
12774;SDS011;6451;42.630;23.382;2022-12-26T04:25:06;6.93;;;5.13;;
12774;SDS011;6451;42.630;23.382;2022-12-26T04:27:56;6.93;;;5.23;;
12774;SDS011;6451;42.630;23.382;2022-12-26T04:30:43;7.57;;;5.27;;
12774;SDS011;6451;42.630;23.382;2022-12-26T04:33:34;7.97;;;5.47;;
12774;SDS011;6451;42.630;23.382;2022-12-26T04:36:25;8.07;;;5.83;;
12774;SDS011;6451;42.630;23.382;2022-12-26T04:39:15;10.67;;;6.20;;
12774;SDS011;6451;42.630;23.382;2022-12-26T04:42:03;8.30;;;6.07;;
12774;SDS011;6451;42.630;23.382;2022-12-26T04:44:50;9.30;;;6.00;;
12774;SDS011;6451;42.630;23.382;2022-12-26T04:47:18;10.27;;;6.30;;
12774;SDS011;6451;42.630;23.382;2022-12-26T04:49:45;7.23;;;5.57;;
12774;SDS011;6451;42.630;23.382;2022-12-26T04:52:29;6.33;;;5.43;;
12774;SDS011;6451;42.630;23.382;2022-12-26T04:55:10;8.37;;;6.40;;
12774;SDS011;6451;42.630;23.382;2022-12-26T04:57:37;9.53;;;6.13;;
12774;SDS011;6451;42.630;23.382;2022-12-26T05:00:06;10.57;;;6.53;;
12774;SDS011;6451;42.630;23.382;2022-12-26T05:02:34;10.63;;;6.80;;
12774;SDS011;6451;42.630;23.382;2022-12-26T05:05:18;11.43;;;6.83;;
12774;SDS011;6451;42.630;23.382;2022-12-26T05:08:03;9.27;;;5.87;;
12774;SDS011;6451;42.630;23.382;2022-12-26T05:10:47;8.13;;;4.60;;
12774;SDS011;6451;42.630;23.382;2022-12-26T05:13:14;4.13;;;3.37;;
12774;SDS011;6451;42.630;23.382;2022-12-26T05:15:42;4.33;;;3.50;;
12774;SDS011;6451;42.630;23.382;2022-12-26T05:18:26;5.00;;;3.63;;
12774;SDS011;6451;42.630;23.382;2022-12-26T05:21:15;5.77;;;3.90;;
12774;SDS011;6451;42.630;23.382;2022-12-26T05:24:01;4.77;;;3.50;;
12774;SDS011;6451;42.630;23.382;2022-12-26T05:26:46;5.07;;;3.90;;
12774;SDS011;6451;42.630;23.382;2022-12-26T05:29:30;6.50;;;4.20;;
12774;SDS011;6451;42.630;23.382;2022-12-26T05:31:59;6.17;;;4.30;;
12774;SDS011;6451;42.630;23.382;2022-12-26T05:34:25;6.80;;;4.30;;
12774;SDS011;6451;42.630;23.382;2022-12-26T05:36:52;7.63;;;4.97;;
12774;SDS011;6451;42.630;23.382;2022-12-26T05:39:21;7.83;;;4.70;;
12774;SDS011;6451;42.630;23.382;2022-12-26T05:41:48;5.80;;;4.60;;
12774;SDS011;6451;42.630;23.382;2022-12-26T05:44:15;7.67;;;4.80;;
12774;SDS011;6451;42.630;23.382;2022-12-26T05:46:42;10.70;;;5.50;;
12774;SDS011;6451;42.630;23.382;2022-12-26T05:49:12;7.83;;;5.07;;
12774;SDS011;6451;42.630;23.382;2022-12-26T05:51:39;10.47;;;6.40;;
12774;SDS011;6451;42.630;23.382;2022-12-26T05:54:05;15.07;;;7.87;;
12774;SDS011;6451;42.630;23.382;2022-12-26T05:56:34;10.40;;;7.90;;
12774;SDS011;6451;42.630;23.382;2022-12-26T05:59:01;16.37;;;11.57;;
12774;SDS011;6451;42.630;23.382;2022-12-26T06:01:28;16.23;;;9.27;;
12774;SDS011;6451;42.630;23.382;2022-12-26T06:03:56;13.33;;;8.37;;
12774;SDS011;6451;42.630;23.382;2022-12-26T06:06:25;12.43;;;8.07;;
12774;SDS011;6451;42.630;23.382;2022-12-26T06:08:53;10.73;;;8.27;;
12774;SDS011;6451;42.630;23.382;2022-12-26T06:11:21;13.07;;;8.57;;
12774;SDS011;6451;42.630;23.382;2022-12-26T06:13:50;10.93;;;7.83;;
12774;SDS011;6451;42.630;23.382;2022-12-26T06:16:17;13.33;;;9.00;;
12774;SDS011;6451;42.630;23.382;2022-12-26T06:18:44;11.90;;;7.93;;
12774;SDS011;6451;42.630;23.382;2022-12-26T06:21:13;13.23;;;8.47;;
12774;SDS011;6451;42.630;23.382;2022-12-26T06:23:43;13.07;;;8.27;;
12774;SDS011;6451;42.630;23.382;2022-12-26T06:26:10;11.03;;;7.97;;
12774;SDS011;6451;42.630;23.382;2022-12-26T06:28:38;10.80;;;7.33;;
12774;SDS011;6451;42.630;23.382;2022-12-26T06:31:06;10.07;;;7.50;;
12774;SDS011;6451;42.630;23.382;2022-12-26T06:33:34;11.73;;;7.47;;
12774;SDS011;6451;42.630;23.382;2022-12-26T06:36:02;10.83;;;7.73;;
12774;SDS011;6451;42.630;23.382;2022-12-26T06:38:30;11.83;;;7.57;;
12774;SDS011;6451;42.630;23.382;2022-12-26T06:40:58;11.47;;;7.60;;
12774;SDS011;6451;42.630;23.382;2022-12-26T06:43:25;8.90;;;6.57;;
12774;SDS011;6451;42.630;23.382;2022-12-26T06:45:55;9.20;;;6.40;;
12774;SDS011;6451;42.630;23.382;2022-12-26T06:48:23;8.33;;;5.53;;
12774;SDS011;6451;42.630;23.382;2022-12-26T06:50:51;7.20;;;5.33;;
12774;SDS011;6451;42.630;23.382;2022-12-26T06:53:19;5.40;;;4.40;;
12774;SDS011;6451;42.630;23.382;2022-12-26T06:55:46;6.83;;;4.70;;
12774;SDS011;6451;42.630;23.382;2022-12-26T06:58:16;7.73;;;4.63;;
12774;SDS011;6451;42.630;23.382;2022-12-26T07:00:43;7.20;;;4.50;;
12774;SDS011;6451;42.630;23.382;2022-12-26T07:03:10;6.30;;;4.70;;
12774;SDS011;6451;42.630;23.382;2022-12-26T07:05:38;5.43;;;4.27;;
12774;SDS011;6451;42.630;23.382;2022-12-26T07:08:05;6.23;;;4.50;;
12774;SDS011;6451;42.630;23.382;2022-12-26T07:10:33;7.43;;;5.00;;
12774;SDS011;6451;42.630;23.382;2022-12-26T07:13:01;5.33;;;4.50;;
12774;SDS011;6451;42.630;23.382;2022-12-26T07:15:29;7.13;;;4.80;;
12774;SDS011;6451;42.630;23.382;2022-12-26T07:17:56;7.87;;;5.40;;
12774;SDS011;6451;42.630;23.382;2022-12-26T07:20:23;6.47;;;4.70;;
12774;SDS011;6451;42.630;23.382;2022-12-26T07:22:50;6.57;;;4.60;;
12774;SDS011;6451;42.630;23.382;2022-12-26T07:25:17;6.70;;;4.60;;
12774;SDS011;6451;42.630;23.382;2022-12-26T07:27:43;6.83;;;4.50;;
12774;SDS011;6451;42.630;23.382;2022-12-26T07:30:10;5.20;;;4.37;;
12774;SDS011;6451;42.630;23.382;2022-12-26T07:32:39;5.67;;;4.80;;
12774;SDS011;6451;42.630;23.382;2022-12-26T07:35:06;7.90;;;5.33;;
12774;SDS011;6451;42.630;23.382;2022-12-26T07:37:33;8.50;;;5.27;;
12774;SDS011;6451;42.630;23.382;2022-12-26T07:40:00;7.63;;;5.30;;
12774;SDS011;6451;42.630;23.382;2022-12-26T07:42:27;6.70;;;5.60;;
12774;SDS011;6451;42.630;23.382;2022-12-26T07:44:54;7.10;;;5.57;;
12774;SDS011;6451;42.630;23.382;2022-12-26T07:47:21;7.13;;;5.63;;
12774;SDS011;6451;42.630;23.382;2022-12-26T07:49:49;9.10;;;6.00;;
12774;SDS011;6451;42.630;23.382;2022-12-26T07:52:16;7.67;;;5.80;;
12774;SDS011;6451;42.630;23.382;2022-12-26T07:54:44;10.00;;;6.40;;
12774;SDS011;6451;42.630;23.382;2022-12-26T07:57:10;8.63;;;6.63;;
12774;SDS011;6451;42.630;23.382;2022-12-26T07:59:37;8.30;;;6.10;;
12774;SDS011;6451;42.630;23.382;2022-12-26T08:02:04;6.30;;;5.37;;
12774;SDS011;6451;42.630;23.382;2022-12-26T08:04:31;5.83;;;5.00;;
12774;SDS011;6451;42.630;23.382;2022-12-26T08:07:00;6.27;;;4.50;;
12774;SDS011;6451;42.630;23.382;2022-12-26T08:09:27;6.80;;;4.70;;
12774;SDS011;6451;42.630;23.382;2022-12-26T08:11:53;5.60;;;4.67;;
12774;SDS011;6451;42.630;23.382;2022-12-26T08:14:20;8.77;;;4.83;;
12774;SDS011;6451;42.630;23.382;2022-12-26T08:16:47;6.73;;;4.90;;
12774;SDS011;6451;42.630;23.382;2022-12-26T08:19:14;8.00;;;5.20;;
12774;SDS011;6451;42.630;23.382;2022-12-26T08:21:41;8.03;;;5.77;;
12774;SDS011;6451;42.630;23.382;2022-12-26T08:24:09;7.17;;;5.10;;
12774;SDS011;6451;42.630;23.382;2022-12-26T08:26:36;7.07;;;4.63;;
12774;SDS011;6451;42.630;23.382;2022-12-26T08:29:03;6.60;;;4.80;;
12774;SDS011;6451;42.630;23.382;2022-12-26T08:31:30;10.47;;;6.47;;
12774;SDS011;6451;42.630;23.382;2022-12-26T08:33:58;10.20;;;7.67;;
12774;SDS011;6451;42.630;23.382;2022-12-26T08:36:25;13.07;;;9.80;;
12774;SDS011;6451;42.630;23.382;2022-12-26T08:38:52;16.17;;;10.80;;
12774;SDS011;6451;42.630;23.382;2022-12-26T08:41:20;18.47;;;12.33;;
12774;SDS011;6451;42.630;23.382;2022-12-26T08:43:47;20.47;;;14.33;;
12774;SDS011;6451;42.630;23.382;2022-12-26T08:46:15;22.83;;;14.77;;
12774;SDS011;6451;42.630;23.382;2022-12-26T08:48:42;21.23;;;15.80;;
12774;SDS011;6451;42.630;23.382;2022-12-26T08:51:10;20.53;;;15.70;;
12774;SDS011;6451;42.630;23.382;2022-12-26T08:53:40;20.90;;;15.83;;
12774;SDS011;6451;42.630;23.382;2022-12-26T08:56:09;18.87;;;14.90;;
12774;SDS011;6451;42.630;23.382;2022-12-26T08:58:39;20.50;;;15.70;;
12774;SDS011;6451;42.630;23.382;2022-12-26T09:01:07;18.50;;;15.10;;
12774;SDS011;6451;42.630;23.382;2022-12-26T09:03:35;19.27;;;14.20;;
12774;SDS011;6451;42.630;23.382;2022-12-26T09:06:02;18.27;;;14.73;;
12774;SDS011;6451;42.630;23.382;2022-12-26T09:08:30;18.93;;;13.93;;
12774;SDS011;6451;42.630;23.382;2022-12-26T09:11:00;16.93;;;12.50;;
12774;SDS011;6451;42.630;23.382;2022-12-26T09:13:27;16.37;;;12.30;;
12774;SDS011;6451;42.630;23.382;2022-12-26T09:15:56;14.47;;;11.60;;
12774;SDS011;6451;42.630;23.382;2022-12-26T09:18:30;17.27;;;12.13;;
12774;SDS011;6451;42.630;23.382;2022-12-26T09:20:58;17.17;;;12.00;;
12774;SDS011;6451;42.630;23.382;2022-12-26T09:23:26;13.67;;;11.63;;
12774;SDS011;6451;42.630;23.382;2022-12-26T09:25:53;14.63;;;11.40;;
12774;SDS011;6451;42.630;23.382;2022-12-26T09:28:20;15.07;;;12.17;;
12774;SDS011;6451;42.630;23.382;2022-12-26T09:33:23;14.63;;;11.93;;
12774;SDS011;6451;42.630;23.382;2022-12-26T09:35:50;16.90;;;12.17;;
12774;SDS011;6451;42.630;23.382;2022-12-26T09:38:17;16.40;;;11.43;;
12774;SDS011;6451;42.630;23.382;2022-12-26T09:40:46;15.40;;;12.03;;
12774;SDS011;6451;42.630;23.382;2022-12-26T09:43:36;14.43;;;11.30;;
12774;SDS011;6451;42.630;23.382;2022-12-26T09:46:15;14.60;;;10.73;;
12774;SDS011;6451;42.630;23.382;2022-12-26T09:48:52;15.23;;;10.53;;
12774;SDS011;6451;42.630;23.382;2022-12-26T09:51:23;14.53;;;10.50;;
12774;SDS011;6451;42.630;23.382;2022-12-26T09:53:51;15.13;;;10.73;;
12774;SDS011;6451;42.630;23.382;2022-12-26T09:56:20;14.07;;;9.93;;
12774;SDS011;6451;42.630;23.382;2022-12-26T09:58:51;11.30;;;9.70;;
12774;SDS011;6451;42.630;23.382;2022-12-26T10:01:21;14.67;;;10.37;;
12774;SDS011;6451;42.630;23.382;2022-12-26T10:03:53;14.90;;;10.60;;
12774;SDS011;6451;42.630;23.382;2022-12-26T10:06:21;16.07;;;11.17;;
12774;SDS011;6451;42.630;23.382;2022-12-26T10:08:56;13.73;;;10.50;;
12774;SDS011;6451;42.630;23.382;2022-12-26T10:11:47;17.27;;;10.90;;
12774;SDS011;6451;42.630;23.382;2022-12-26T10:14:25;14.00;;;10.33;;
12774;SDS011;6451;42.630;23.382;2022-12-26T10:17:02;13.67;;;9.70;;
12774;SDS011;6451;42.630;23.382;2022-12-26T10:19:59;11.97;;;9.50;;
12774;SDS011;6451;42.630;23.382;2022-12-26T10:22:53;12.90;;;8.83;;
12774;SDS011;6451;42.630;23.382;2022-12-26T10:25:33;12.60;;;9.53;;
12774;SDS011;6451;42.630;23.382;2022-12-26T10:28:08;13.07;;;9.43;;
12774;SDS011;6451;42.630;23.382;2022-12-26T10:30:42;10.63;;;8.20;;
12774;SDS011;6451;42.630;23.382;2022-12-26T10:33:13;11.63;;;7.73;;
12774;SDS011;6451;42.630;23.382;2022-12-26T10:35:45;10.73;;;7.10;;
12774;SDS011;6451;42.630;23.382;2022-12-26T10:38:15;11.87;;;7.40;;
12774;SDS011;6451;42.630;23.382;2022-12-26T10:40:55;10.00;;;6.80;;
12774;SDS011;6451;42.630;23.382;2022-12-26T10:43:29;11.87;;;8.40;;
12774;SDS011;6451;42.630;23.382;2022-12-26T10:46:12;12.67;;;7.73;;
12774;SDS011;6451;42.630;23.382;2022-12-26T10:48:48;11.13;;;7.33;;
12774;SDS011;6451;42.630;23.382;2022-12-26T10:51:16;8.30;;;6.93;;
12774;SDS011;6451;42.630;23.382;2022-12-26T10:53:46;13.43;;;9.57;;
12774;SDS011;6451;42.630;23.382;2022-12-26T10:56:14;14.27;;;9.67;;
12774;SDS011;6451;42.630;23.382;2022-12-26T10:58:43;11.17;;;7.90;;
12774;SDS011;6451;42.630;23.382;2022-12-26T11:01:30;16.07;;;10.37;;
12774;SDS011;6451;42.630;23.382;2022-12-26T11:03:59;12.47;;;8.47;;
12774;SDS011;6451;42.630;23.382;2022-12-26T11:06:30;12.47;;;8.03;;
12774;SDS011;6451;42.630;23.382;2022-12-26T11:08:59;11.07;;;7.90;;
12774;SDS011;6451;42.630;23.382;2022-12-26T11:11:26;11.10;;;8.23;;
12774;SDS011;6451;42.630;23.382;2022-12-26T11:14:22;14.57;;;7.43;;
12774;SDS011;6451;42.630;23.382;2022-12-26T11:16:52;11.03;;;7.13;;
12774;SDS011;6451;42.630;23.382;2022-12-26T11:19:27;10.00;;;7.87;;
12774;SDS011;6451;42.630;23.382;2022-12-26T11:24:56;11.63;;;6.73;;
12774;SDS011;6451;42.630;23.382;2022-12-26T11:27:35;12.03;;;6.77;;
12774;SDS011;6451;42.630;23.382;2022-12-26T11:30:14;6.40;;;5.37;;
12774;SDS011;6451;42.630;23.382;2022-12-26T11:32:48;8.77;;;4.77;;
12774;SDS011;6451;42.630;23.382;2022-12-26T11:35:28;6.30;;;4.50;;
12774;SDS011;6451;42.630;23.382;2022-12-26T11:38:02;7.87;;;4.83;;
12774;SDS011;6451;42.630;23.382;2022-12-26T11:40:33;8.97;;;5.00;;
12774;SDS011;6451;42.630;23.382;2022-12-26T11:43:03;9.17;;;4.80;;
12774;SDS011;6451;42.630;23.382;2022-12-26T11:45:35;8.57;;;5.00;;
12774;SDS011;6451;42.630;23.382;2022-12-26T11:48:15;7.43;;;5.03;;
12774;SDS011;6451;42.630;23.382;2022-12-26T11:50:48;7.73;;;5.30;;
12774;SDS011;6451;42.630;23.382;2022-12-26T11:53:18;7.43;;;4.90;;
12774;SDS011;6451;42.630;23.382;2022-12-26T11:55:56;6.57;;;4.40;;
12774;SDS011;6451;42.630;23.382;2022-12-26T11:58:26;6.80;;;4.30;;
12774;SDS011;6451;42.630;23.382;2022-12-26T12:01:11;7.90;;;4.53;;
12774;SDS011;6451;42.630;23.382;2022-12-26T12:03:42;8.27;;;4.57;;
12774;SDS011;6451;42.630;23.382;2022-12-26T12:06:17;9.97;;;4.87;;
12774;SDS011;6451;42.630;23.382;2022-12-26T12:09:04;7.43;;;4.70;;
12774;SDS011;6451;42.630;23.382;2022-12-26T12:11:40;6.83;;;4.27;;
12774;SDS011;6451;42.630;23.382;2022-12-26T12:14:22;7.10;;;3.50;;
12774;SDS011;6451;42.630;23.382;2022-12-26T12:17:00;5.70;;;3.83;;
12774;SDS011;6451;42.630;23.382;2022-12-26T12:19:42;16.33;;;8.33;;
12774;SDS011;6451;42.630;23.382;2022-12-26T12:25:20;6.10;;;4.13;;
12774;SDS011;6451;42.630;23.382;2022-12-26T12:28:08;9.10;;;5.47;;
12774;SDS011;6451;42.630;23.382;2022-12-26T12:30:50;7.00;;;4.40;;
12774;SDS011;6451;42.630;23.382;2022-12-26T12:33:27;10.10;;;4.50;;
12774;SDS011;6451;42.630;23.382;2022-12-26T12:36:08;5.60;;;4.20;;
12774;SDS011;6451;42.630;23.382;2022-12-26T12:38:40;6.77;;;4.20;;
12774;SDS011;6451;42.630;23.382;2022-12-26T12:41:38;6.57;;;4.10;;
12774;SDS011;6451;42.630;23.382;2022-12-26T12:44:19;6.93;;;3.87;;
12774;SDS011;6451;42.630;23.382;2022-12-26T12:46:59;5.90;;;4.20;;
12774;SDS011;6451;42.630;23.382;2022-12-26T12:49:38;7.87;;;4.43;;
12774;SDS011;6451;42.630;23.382;2022-12-26T12:54:55;7.03;;;4.53;;
12774;SDS011;6451;42.630;23.382;2022-12-26T12:57:47;7.07;;;3.67;;
12774;SDS011;6451;42.630;23.382;2022-12-26T13:00:17;9.47;;;3.80;;
12774;SDS011;6451;42.630;23.382;2022-12-26T13:02:47;7.90;;;3.90;;
12774;SDS011;6451;42.630;23.382;2022-12-26T13:05:28;6.00;;;4.10;;
12774;SDS011;6451;42.630;23.382;2022-12-26T13:08:05;6.13;;;3.70;;
12774;SDS011;6451;42.630;23.382;2022-12-26T13:10:36;7.03;;;4.10;;
12774;SDS011;6451;42.630;23.382;2022-12-26T13:13:15;9.33;;;5.10;;
12774;SDS011;6451;42.630;23.382;2022-12-26T13:15:47;6.03;;;4.10;;
12774;SDS011;6451;42.630;23.382;2022-12-26T13:18:19;7.80;;;4.60;;
12774;SDS011;6451;42.630;23.382;2022-12-26T13:20:49;8.50;;;4.90;;
12774;SDS011;6451;42.630;23.382;2022-12-26T13:23:21;8.33;;;4.67;;
12774;SDS011;6451;42.630;23.382;2022-12-26T13:26:11;8.50;;;4.93;;
12774;SDS011;6451;42.630;23.382;2022-12-26T13:28:45;7.93;;;5.00;;
12774;SDS011;6451;42.630;23.382;2022-12-26T13:31:20;8.40;;;5.00;;
12774;SDS011;6451;42.630;23.382;2022-12-26T13:33:48;7.67;;;4.70;;
12774;SDS011;6451;42.630;23.382;2022-12-26T13:36:35;8.80;;;4.43;;
12774;SDS011;6451;42.630;23.382;2022-12-26T13:41:57;7.37;;;4.90;;
12774;SDS011;6451;42.630;23.382;2022-12-26T13:44:45;7.17;;;4.50;;
12774;SDS011;6451;42.630;23.382;2022-12-26T13:47:32;8.33;;;4.97;;
12774;SDS011;6451;42.630;23.382;2022-12-26T13:53:05;10.43;;;7.20;;
12774;SDS011;6451;42.630;23.382;2022-12-26T13:55:52;16.83;;;11.13;;
12774;SDS011;6451;42.630;23.382;2022-12-26T14:01:23;12.67;;;7.50;;
12774;SDS011;6451;42.630;23.382;2022-12-26T14:04:23;10.83;;;6.63;;
12774;SDS011;6451;42.630;23.382;2022-12-26T14:07:09;10.80;;;6.50;;
12774;SDS011;6451;42.630;23.382;2022-12-26T14:09:55;13.73;;;7.30;;
12774;SDS011;6451;42.630;23.382;2022-12-26T14:15:27;12.57;;;6.60;;
12774;SDS011;6451;42.630;23.382;2022-12-26T14:18:16;11.87;;;7.43;;
12774;SDS011;6451;42.630;23.382;2022-12-26T14:20:53;11.20;;;7.50;;
12774;SDS011;6451;42.630;23.382;2022-12-26T14:23:40;10.90;;;6.30;;
12774;SDS011;6451;42.630;23.382;2022-12-26T14:26:17;12.07;;;5.97;;
12774;SDS011;6451;42.630;23.382;2022-12-26T14:28:55;10.67;;;6.03;;
12774;SDS011;6451;42.630;23.382;2022-12-26T14:31:34;10.97;;;6.13;;
12774;SDS011;6451;42.630;23.382;2022-12-26T14:34:12;9.03;;;6.63;;
12774;SDS011;6451;42.630;23.382;2022-12-26T14:36:53;14.10;;;6.97;;
12774;SDS011;6451;42.630;23.382;2022-12-26T14:39:29;14.93;;;6.80;;
12774;SDS011;6451;42.630;23.382;2022-12-26T14:44:40;10.63;;;6.57;;
12774;SDS011;6451;42.630;23.382;2022-12-26T14:47:08;14.00;;;7.00;;
12774;SDS011;6451;42.630;23.382;2022-12-26T14:49:38;14.40;;;7.60;;
12774;SDS011;6451;42.630;23.382;2022-12-26T14:58:23;12.83;;;8.03;;
12774;SDS011;6451;42.630;23.382;2022-12-26T15:00:54;19.67;;;9.97;;
12774;SDS011;6451;42.630;23.382;2022-12-26T15:03:32;17.90;;;11.30;;
12774;SDS011;6451;42.630;23.382;2022-12-26T15:15:38;14.77;;;9.50;;
12774;SDS011;6451;42.630;23.382;2022-12-26T15:24:50;18.43;;;10.03;;
12774;SDS011;6451;42.630;23.382;2022-12-26T15:30:43;13.93;;;10.50;;
12774;SDS011;6451;42.630;23.382;2022-12-26T15:33:23;16.33;;;11.03;;
12774;SDS011;6451;42.630;23.382;2022-12-26T15:35:58;15.90;;;11.03;;
12774;SDS011;6451;42.630;23.382;2022-12-26T15:38:32;17.97;;;11.30;;
12774;SDS011;6451;42.630;23.382;2022-12-26T15:41:11;18.60;;;12.40;;
12774;SDS011;6451;42.630;23.382;2022-12-26T15:43:48;17.53;;;10.83;;
12774;SDS011;6451;42.630;23.382;2022-12-26T15:46:30;16.93;;;10.50;;
12774;SDS011;6451;42.630;23.382;2022-12-26T15:51:58;16.37;;;10.73;;
12774;SDS011;6451;42.630;23.382;2022-12-26T15:57:37;19.63;;;11.27;;
12774;SDS011;6451;42.630;23.382;2022-12-26T16:00:11;19.67;;;12.90;;
12774;SDS011;6451;42.630;23.382;2022-12-26T16:02:46;20.27;;;13.77;;
12774;SDS011;6451;42.630;23.382;2022-12-26T16:05:48;21.63;;;13.23;;
12774;SDS011;6451;42.630;23.382;2022-12-26T16:08:25;20.93;;;13.70;;
12774;SDS011;6451;42.630;23.382;2022-12-26T16:11:13;31.30;;;17.93;;
12774;SDS011;6451;42.630;23.382;2022-12-26T16:13:51;48.70;;;31.70;;
12774;SDS011;6451;42.630;23.382;2022-12-26T16:16:23;55.83;;;35.33;;
12774;SDS011;6451;42.630;23.382;2022-12-26T16:19:00;27.90;;;17.00;;
12774;SDS011;6451;42.630;23.382;2022-12-26T16:21:40;20.50;;;12.37;;
12774;SDS011;6451;42.630;23.382;2022-12-26T16:24:27;16.53;;;10.63;;